Time;durP1;ratioP1;P1;durP2;ratioP2;P2;SDS_P1;SDS_P2;PMS_P1;PMS_P2;Temp;Humidity;BMP_temperature;BMP_pressure;BME280_temperature;BME280_humidity;BME280_pressure;Samples;Min_cycle;Max_cycle;Signal;HPM_P1;HPM_P2
2022/08/26 00:00:43;;;;;;;12.30;6.20;;;;;;;22.96;66.48;100362.19;4936423;28;102200;-50
2022/08/26 00:03:11;;;;;;;9.60;6.28;;;;;;;22.97;66.16;100360.22;4971231;28;103845;-50
2022/08/26 00:05:38;;;;;;;7.30;6.13;;;;;;;22.97;66.30;100365.78;4967068;28;102324;-50
2022/08/26 00:08:06;;;;;;;6.85;6.10;;;;;;;22.97;66.38;100354.66;4954581;28;102589;-50
2022/08/26 00:10:32;;;;;;;10.27;6.93;;;;;;;22.97;66.38;100360.22;4955533;28;102208;-50
2022/08/26 00:12:59;;;;;;;7.03;5.97;;;;;;;22.95;66.64;100359.78;4943163;28;103978;-50
2022/08/26 00:15:25;;;;;;;7.13;5.95;;;;;;;22.96;66.69;100358.63;4934964;28;102379;-50
2022/08/26 00:17:54;;;;;;;6.05;5.55;;;;;;;22.96;66.10;100361.41;4934864;28;102450;-50
2022/08/26 00:20:24;;;;;;;7.57;5.90;;;;;;;22.96;66.47;100356.66;4935760;28;102634;-50
2022/08/26 00:22:50;;;;;;;7.55;6.38;;;;;;;22.97;66.40;100357.44;4951479;28;104950;-50
2022/08/26 00:25:17;;;;;;;7.75;6.70;;;;;;;22.96;66.52;100366.94;4954347;28;102252;-50
2022/08/26 00:27:44;;;;;;;6.35;5.80;;;;;;;22.95;66.46;100363.38;4954802;28;102026;-50
2022/08/26 00:30:13;;;;;;;7.95;6.82;;;;;;;22.96;66.42;100364.16;4949071;28;102706;-50
2022/08/26 00:32:40;;;;;;;6.85;5.65;;;;;;;22.95;66.49;100357.03;4954237;28;104013;-50
2022/08/26 00:35:10;;;;;;;6.95;6.30;;;;;;;22.94;66.30;100363.75;4954453;28;102205;-50
2022/08/26 00:37:37;;;;;;;6.18;5.65;;;;;;;22.96;66.63;100356.66;4954440;28;102378;-51
2022/08/26 00:40:04;;;;;;;6.57;5.97;;;;;;;22.94;66.08;100358.19;4955625;28;102030;-50
2022/08/26 00:42:31;;;;;;;7.53;6.82;;;;;;;22.94;66.32;100352.66;4954239;28;103881;-50
2022/08/26 00:44:58;;;;;;;6.97;6.38;;;;;;;22.94;66.16;100352.66;4954423;28;102197;-50
2022/08/26 00:47:30;;;;;;;6.43;5.88;;;;;;;22.95;66.30;100359.78;4939479;27;102176;-50
2022/08/26 00:50:01;;;;;;;7.75;6.15;;;;;;;22.95;66.25;100354.25;4936007;28;102283;-50
2022/08/26 00:52:30;;;;;;;6.63;6.13;;;;;;;22.93;66.11;100362.91;4934067;28;107880;-50
2022/08/26 00:55:05;;;;;;;8.40;6.57;;;;;;;22.94;66.16;100356.22;4934628;28;102068;-50
2022/08/26 00:57:34;;;;;;;6.72;6.22;;;;;;;22.94;65.82;100358.19;4934625;28;102527;-49
2022/08/26 01:00:08;;;;;;;8.85;5.43;;;;;;;22.93;65.97;100357.38;4935009;28;102357;-50
2022/08/26 01:02:35;;;;;;;6.35;5.85;;;;;;;22.94;66.03;100347.91;4961008;28;104065;-50
2022/08/26 01:05:05;;;;;;;6.90;5.85;;;;;;;22.92;66.05;100346.66;4937877;28;102142;-50
2022/08/26 01:07:34;;;;;;;6.55;5.93;;;;;;;22.93;65.85;100354.59;4954290;28;102271;-50
2022/08/26 01:10:03;;;;;;;7.03;6.03;;;;;;;22.93;66.00;100353.78;4954979;28;102256;-50
2022/08/26 01:12:36;;;;;;;7.70;7.07;;;;;;;22.93;65.49;100351.03;4952955;28;103760;-50
2022/08/26 01:15:04;;;;;;;9.00;6.15;;;;;;;22.93;66.06;100342.69;4953861;28;102134;-50
2022/08/26 01:17:32;;;;;;;7.13;6.47;;;;;;;22.91;65.77;100337.50;4953984;28;102198;-50
2022/08/26 01:20:02;;;;;;;9.35;6.78;;;;;;;22.92;65.60;100338.31;4951018;28;102317;-50
2022/08/26 01:22:37;;;;;;;7.63;5.90;;;;;;;22.91;65.56;100343.03;4934142;28;103945;-50
2022/08/26 01:25:04;;;;;;;6.97;6.38;;;;;;;22.92;65.49;100335.53;4946655;28;101881;-50
2022/08/26 01:27:34;;;;;;;7.60;6.47;;;;;;;22.89;65.73;100339.81;4953573;27;102196;-50
2022/08/26 01:30:03;;;;;;;8.18;6.43;;;;;;;22.90;65.72;100329.50;4954107;28;102755;-50
2022/08/26 01:32:31;;;;;;;6.95;6.35;;;;;;;22.89;65.90;100330.69;4953640;28;104134;-50
2022/08/26 01:34:59;;;;;;;9.35;6.72;;;;;;;22.90;65.73;100318.41;4953830;28;102217;-50
2022/08/26 01:37:32;;;;;;;10.07;6.50;;;;;;;22.91;65.33;100320.03;4946741;28;102303;-50
2022/08/26 01:40:01;;;;;;;11.70;6.57;;;;;;;22.89;65.42;100323.16;4935459;28;102123;-50
2022/08/26 01:42:28;;;;;;;7.90;6.75;;;;;;;22.92;65.89;100321.66;4933116;28;104104;-50
2022/08/26 01:44:59;;;;;;;8.13;7.53;;;;;;;22.91;65.71;100326.41;4934200;28;102032;-50
2022/08/26 01:47:29;;;;;;;7.38;6.68;;;;;;;22.91;65.44;100325.59;4933956;28;101964;-50
2022/08/26 01:50:00;;;;;;;9.45;7.13;;;;;;;22.91;65.72;100329.16;4934922;28;102514;-50
2022/08/26 01:52:30;;;;;;;8.27;7.32;;;;;;;22.91;65.57;100328.38;4933187;28;104099;-50
2022/08/26 01:54:58;;;;;;;7.75;7.05;;;;;;;22.91;65.42;100325.59;4934700;28;102081;-50
2022/08/26 01:57:27;;;;;;;;;;;;;;;22.90;65.44;100319.25;4934255;28;102284;-50
2022/08/26 01:59:57;;;;;;;12.63;6.55;;;;;;;22.92;65.60;100324.44;4937556;28;102210;-51
2022/08/26 02:02:24;;;;;;;7.93;6.85;;;;;;;22.91;65.95;100314.50;4951831;28;104065;-50
2022/08/26 02:04:56;;;;;;;7.68;7.03;;;;;;;22.91;65.59;100325.59;4953617;28;102073;-50
2022/08/26 02:07:23;;;;;;;8.48;6.43;;;;;;;22.91;65.88;100331.16;4953255;28;101952;-50
2022/08/26 02:09:49;;;;;;;9.65;6.63;;;;;;;22.92;65.67;100324.44;4953562;28;102244;-50
2022/08/26 02:12:18;;;;;;;7.00;5.80;;;;;;;22.91;65.67;100322.81;4951938;28;103957;-49
2022/08/26 02:14:50;;;;;;;6.97;6.38;;;;;;;22.91;65.61;100331.16;4953695;28;102125;-50
2022/08/26 02:17:21;;;;;;;7.47;6.47;;;;;;;22.91;65.71;100326.41;4953189;28;102146;-50
2022/08/26 02:19:49;;;;;;;7.57;6.63;;;;;;;22.92;65.69;100332.78;4966083;27;102183;-50
2022/08/26 02:22:18;;;;;;;7.60;6.80;;;;;;;22.91;65.80;100331.16;4972276;28;104038;-50
2022/08/26 02:24:48;;;;;;;10.50;6.38;;;;;;;22.90;65.78;100329.50;4971691;28;102790;-51
2022/08/26 02:27:15;;;;;;;6.57;6.10;;;;;;;22.92;65.87;100341.09;4972634;28;102324;-50
2022/08/26 02:29:48;;;;;;;7.35;6.22;;;;;;;22.93;65.41;100339.91;4953979;27;102645;-50
2022/08/26 02:32:14;;;;;;;9.93;7.10;;;;;;;22.91;65.60;100343.03;4941090;28;103933;-50
2022/08/26 02:34:41;;;;;;;8.05;6.88;;;;;;;22.91;65.73;100345.00;4953521;28;101940;-50
2022/08/26 02:37:09;;;;;;;9.05;7.93;;;;;;;22.91;65.66;100345.81;4952830;28;101950;-50
2022/08/26 02:39:39;;;;;;;8.88;7.15;;;;;;;22.92;65.35;100349.41;4954121;28;102436;-50
2022/08/26 02:42:06;;;;;;;7.97;7.18;;;;;;;22.92;65.40;100349.41;4952378;28;103925;-50
2022/08/26 02:44:33;;;;;;;9.65;6.65;;;;;;;22.91;65.25;100353.34;4952835;28;102218;-50
2022/08/26 02:47:01;;;;;;;7.30;6.60;;;;;;;22.92;65.66;100349.41;4933046;28;102441;-50
2022/08/26 02:49:29;;;;;;;7.70;7.00;;;;;;;22.89;65.54;100350.91;4951370;28;102139;-50
2022/08/26 02:51:56;;;;;;;11.02;6.43;;;;;;;22.91;65.44;100353.34;4952389;28;104126;-50
2022/08/26 02:54:22;;;;;;;7.55;6.85;;;;;;;22.89;65.52;100350.91;4952793;28;102366;-50
2022/08/26 02:56:50;;;;;;;7.45;6.85;;;;;;;22.91;65.57;100350.56;4952175;28;102229;-50
2022/08/26 02:59:17;;;;;;;8.15;7.10;;;;;;;22.91;65.12;100347.78;4968913;28;102224;-50
2022/08/26 03:01:47;;;;;;;10.35;7.40;;;;;;;22.89;65.24;100350.91;4968262;28;103896;-50
2022/08/26 03:04:15;;;;;;;7.65;6.93;;;;;;;22.89;64.97;100347.34;4933055;28;102024;-51
2022/08/26 03:06:42;;;;;;;8.43;6.50;;;;;;;22.90;65.40;100347.00;4964729;28;102077;-50
2022/08/26 03:09:09;;;;;;;7.90;6.85;;;;;;;22.89;65.47;100355.66;4972781;27;102610;-50
2022/08/26 03:11:36;;;;;;;8.52;6.97;;;;;;;22.90;65.32;100352.53;4971467;28;104000;-50
2022/08/26 03:14:03;;;;;;;9.25;6.93;;;;;;;22.92;65.78;100360.53;4972118;28;101945;-50
2022/08/26 03:16:31;;;;;;;8.38;7.00;;;;;;;22.90;65.26;100354.47;4971909;28;102178;-50
2022/08/26 03:18:58;;;;;;;7.87;6.80;;;;;;;22.88;65.29;100354.06;4965674;28;102223;-50
2022/08/26 03:21:26;;;;;;;7.30;6.55;;;;;;;22.90;65.13;100363.63;4936105;28;103922;-50
2022/08/26 03:23:53;;;;;;;8.57;7.88;;;;;;;22.90;65.30;100366.41;4952257;28;102118;-50
2022/08/26 03:26:19;;;;;;;10.32;6.40;;;;;;;22.89;65.22;100366.75;4964954;28;102068;-50
2022/08/26 03:31:31;;;;;;;8.27;7.47;;;;;;;22.88;65.19;100368.75;4951484;28;103916;-50
2022/08/26 03:33:58;;;;;;;12.30;7.03;;;;;;;22.90;65.41;100374.75;4952099;28;101976;-50
2022/08/26 03:36:26;;;;;;;9.02;7.18;;;;;;;22.88;65.21;100377.06;4946338;28;102363;-50
2022/08/26 03:38:53;;;;;;;10.23;8.07;;;;;;;22.91;65.48;100378.31;4935839;28;102197;-50
2022/08/26 03:41:20;;;;;;;10.13;7.10;;;;;;;22.89;65.38;100377.84;4934784;28;103947;-50
2022/08/26 03:43:49;;;;;;;9.05;6.93;;;;;;;22.89;65.12;100386.19;4935788;28;102255;-50
2022/08/26 03:46:17;;;;;;;7.13;6.53;;;;;;;22.90;65.43;100385.00;4935306;28;102182;-50
2022/08/26 03:48:44;;;;;;;7.60;6.90;;;;;;;22.91;65.32;100383.88;4942227;28;102099;-50
2022/08/26 03:51:13;;;;;;;8.48;6.97;;;;;;;22.90;65.25;100380.28;4969049;28;103940;-50
2022/08/26 03:53:41;;;;;;;7.72;6.85;;;;;;;22.89;65.35;100377.84;4946263;28;101940;-48
2022/08/26 03:56:08;;;;;;;8.98;7.47;;;;;;;22.90;65.49;100385.84;4935022;28;101990;-49
2022/08/26 03:58:36;;;;;;;11.80;7.05;;;;;;;22.89;65.13;100389.75;4936535;28;102399;-50
2022/08/26 04:01:02;;;;;;;8.32;6.90;;;;;;;22.89;64.94;100392.53;4936762;28;103935;-50
2022/08/26 04:06:15;;;;;;;7.70;6.65;;;;;;;22.91;65.27;100389.41;4974491;28;102378;-50
2022/08/26 04:08:44;;;;;;;7.85;6.97;;;;;;;22.90;65.06;100396.94;4975233;28;102157;-50
2022/08/26 04:11:17;;;;;;;8.00;7.20;;;;;;;22.91;65.61;100394.97;4947084;28;103846;-51
2022/08/26 04:13:43;;;;;;;10.68;6.95;;;;;;;22.91;65.53;100400.50;4935790;28;102085;-50
2022/08/26 04:16:10;;;;;;;7.55;6.85;;;;;;;22.91;65.20;100397.72;4934887;28;102300;-50
2022/08/26 04:18:37;;;;;;;8.48;7.55;;;;;;;22.89;65.29;100394.50;4946231;28;102307;-50
2022/08/26 04:21:04;;;;;;;10.60;7.45;;;;;;;22.89;65.56;100388.97;4953404;28;103917;-50
2022/08/26 04:23:30;;;;;;;7.55;6.90;;;;;;;22.88;65.32;100392.91;4954944;28;102445;-50
2022/08/26 04:25:59;;;;;;;10.85;7.00;;;;;;;22.89;65.31;100394.50;4954074;28;102499;-50
2022/08/26 04:28:25;;;;;;;12.23;7.25;;;;;;;22.88;65.18;100393.72;4940811;28;102138;-50
2022/08/26 04:30:52;;;;;;;10.65;7.57;;;;;;;22.89;65.58;100388.97;4947901;28;103941;-50
2022/08/26 04:33:20;;;;;;;9.63;7.32;;;;;;;22.89;64.93;100394.50;4954674;28;102327;-51
2022/08/26 04:35:47;;;;;;;9.63;7.50;;;;;;;22.88;65.12;100388.16;4955682;28;102041;-50
2022/08/26 04:38:13;;;;;;;9.23;7.55;;;;;;;22.86;65.25;100390.47;4958579;28;103099;-50
2022/08/26 04:40:43;;;;;;;9.90;7.03;;;;;;;22.91;65.25;100397.72;4953585;28;103873;-50
2022/08/26 04:43:11;;;;;;;10.82;6.78;;;;;;;22.89;65.15;100388.97;4954500;28;102630;-50
2022/08/26 04:45:38;;;;;;;9.27;6.87;;;;;;;22.87;65.14;100385.75;4953165;28;102427;-50
2022/08/26 04:48:05;;;;;;;10.02;7.00;;;;;;;22.88;65.07;100392.91;4954404;28;102647;-50
2022/08/26 04:50:32;;;;;;;10.02;7.15;;;;;;;22.88;65.24;100393.72;4953565;28;104001;-50
2022/08/26 04:52:59;;;;;;;9.65;7.03;;;;;;;22.87;65.21;100385.75;4954206;28;102663;-50
2022/08/26 04:55:25;;;;;;;11.85;7.18;;;;;;;22.87;64.87;100391.31;4953829;28;102338;-50
2022/08/26 04:57:52;;;;;;;7.95;6.45;;;;;;;22.87;65.02;100391.31;4954894;28;102311;-50
2022/08/26 05:00:21;;;;;;;10.13;7.40;;;;;;;22.87;64.89;100391.31;4953460;28;103938;-50
2022/08/26 05:02:47;;;;;;;12.23;7.32;;;;;;;22.88;65.27;100393.72;4966967;28;101975;-50
2022/08/26 05:05:14;;;;;;;13.68;7.78;;;;;;;22.88;65.28;100398.47;4973416;28;102248;-51
2022/08/26 05:07:41;;;;;;;16.27;6.85;;;;;;;22.86;65.02;100400.78;4967356;28;102462;-50
2022/08/26 05:10:08;;;;;;;13.30;8.48;;;;;;;22.88;65.17;100399.25;4953636;27;104009;-50
2022/08/26 05:12:35;;;;;;;12.75;8.20;;;;;;;22.87;65.10;100397.66;4954546;28;101986;-50
2022/08/26 05:15:02;;;;;;;12.02;8.25;;;;;;;22.87;65.08;100394.09;4953513;28;102598;-50
2022/08/26 05:17:32;;;;;;;14.48;7.65;;;;;;;22.87;65.31;100396.84;4955145;28;102330;-50
2022/08/26 05:19:59;;;;;;;11.52;7.05;;;;;;;22.87;65.10;100391.31;4933776;28;104031;-50
2022/08/26 05:22:25;;;;;;;11.45;7.35;;;;;;;22.87;65.38;100391.31;4934682;28;101985;-50
2022/08/26 05:24:52;;;;;;;11.48;7.40;;;;;;;22.86;65.43;100401.56;4933959;28;102562;-50
2022/08/26 05:27:18;;;;;;;9.23;6.53;;;;;;;22.86;65.21;100393.25;4934966;28;102636;-50
2022/08/26 05:29:45;;;;;;;13.65;7.55;;;;;;;22.88;65.46;100390.13;4941592;28;103863;-50
2022/08/26 05:32:11;;;;;;;12.95;7.30;;;;;;;22.86;65.64;100389.69;4973493;28;102608;-50
2022/08/26 05:34:39;;;;;;;11.82;8.30;;;;;;;22.87;65.57;100391.31;4971523;28;102073;-50
2022/08/26 05:37:06;;;;;;;10.40;6.50;;;;;;;22.87;65.72;100391.31;4954600;28;102168;-51
2022/08/26 05:39:32;;;;;;;9.95;7.05;;;;;;;22.85;65.41;100388.88;4968713;28;103904;-50
2022/08/26 05:41:59;;;;;;;16.23;7.63;;;;;;;22.87;65.59;100391.31;4972668;27;102379;-50
2022/08/26 05:44:25;;;;;;;13.60;7.68;;;;;;;22.88;65.97;100387.34;4972923;28;102342;-51
2022/08/26 05:46:52;;;;;;;12.10;7.28;;;;;;;22.86;65.79;100389.69;4974604;28;102397;-51
2022/08/26 05:49:19;;;;;;;13.63;7.68;;;;;;;22.87;65.72;100385.75;4954691;28;103882;-50
2022/08/26 05:51:47;;;;;;;14.85;7.63;;;;;;;22.87;65.63;100391.31;4949945;28;102217;-50
2022/08/26 05:54:14;;;;;;;13.10;8.10;;;;;;;22.86;65.84;100389.69;4942539;28;102242;-51
2022/08/26 05:56:40;;;;;;;12.85;7.32;;;;;;;22.85;65.76;100388.88;4956441;28;102827;-51
2022/08/26 05:59:11;;;;;;;15.65;8.98;;;;;;;22.84;65.78;100392.81;4944620;28;104051;-51
2022/08/26 06:01:38;;;;;;;12.18;7.70;;;;;;;22.87;66.16;100391.31;4957404;28;102062;-51
2022/08/26 06:04:04;;;;;;;12.90;7.88;;;;;;;22.86;66.11;100395.22;4972974;28;102301;-50
2022/08/26 06:06:34;;;;;;;18.63;8.02;;;;;;;22.86;65.66;100390.47;4964396;28;102195;-51
2022/08/26 06:09:04;;;;;;;17.58;7.60;;;;;;;22.85;64.98;100383.34;4949897;28;107990;-50
2022/08/26 06:11:32;;;;;;;22.27;8.23;;;;;;;22.88;66.14;100392.91;4950210;28;102832;-51
2022/08/26 06:14:02;;;;;;;25.48;8.75;;;;;;;22.86;66.13;100384.13;4952732;28;102703;-50
2022/08/26 06:16:30;;;;;;;18.48;8.65;;;;;;;22.87;66.06;100389.34;4957439;28;102223;-50
2022/08/26 06:18:57;;;;;;;22.17;8.30;;;;;;;22.89;65.65;100391.72;4952850;28;104402;-50
2022/08/26 06:21:26;;;;;;;24.75;8.75;;;;;;;22.88;64.83;100392.91;4952946;28;102466;-51
2022/08/26 06:26:47;;;;;;;21.17;8.63;;;;;;;22.87;63.34;100388.53;4950000;28;102493;-50
2022/08/26 06:29:14;;;;;;;19.00;8.35;;;;;;;22.87;62.46;100392.09;4955653;28;104365;-50
2022/08/26 06:31:40;;;;;;;23.08;8.15;;;;;;;22.89;63.27;100394.50;4956556;28;102427;-50
2022/08/26 06:34:07;;;;;;;23.40;9.90;;;;;;;22.92;65.66;100391.03;4968751;28;102119;-50
2022/08/26 06:36:34;;;;;;;14.60;7.43;;;;;;;22.91;65.43;100393.00;4953786;28;102799;-50
2022/08/26 06:39:04;;;;;;;19.92;8.15;;;;;;;22.92;65.65;100388.28;4952639;28;104330;-50
2022/08/26 06:41:33;;;;;;;14.60;8.32;;;;;;;22.92;65.21;100391.84;4952750;28;101991;-50
2022/08/26 06:44:04;;;;;;;15.20;7.00;;;;;;;22.92;64.05;100393.81;4949104;28;102223;-50
2022/08/26 06:46:32;;;;;;;19.42;7.97;;;;;;;22.93;65.16;100389.88;4954031;28;102187;-50
2022/08/26 06:48:58;;;;;;;21.58;8.20;;;;;;;22.94;65.47;100391.50;4952429;28;104006;-50
2022/08/26 06:51:27;;;;;;;17.35;8.20;;;;;;;22.93;63.39;100392.63;4954522;28;101872;-50
2022/08/26 06:53:54;;;;;;;;;;;;;;;22.94;64.82;100391.50;4951902;28;102824;-50
2022/08/26 06:56:24;;;;;;;23.52;7.82;;;;;;;22.93;62.15;100400.97;4953479;28;102148;-50
2022/08/26 06:58:51;;;;;;;13.73;7.65;;;;;;;22.94;65.09;100402.59;4951155;28;103888;-50
2022/08/26 07:01:21;;;;;;;20.80;8.32;;;;;;;22.93;64.22;100403.75;4951933;28;102588;-50
2022/08/26 07:03:50;;;;;;;24.23;8.25;;;;;;;22.94;65.33;100405.38;4951962;28;102230;-51
2022/08/26 07:06:19;;;;;;;19.33;8.20;;;;;;;22.94;65.44;100408.16;4953102;28;102596;-50
2022/08/26 07:08:45;;;;;;;16.35;7.88;;;;;;;22.93;65.51;100407.31;4952037;28;103751;-50
2022/08/26 07:11:12;;;;;;;24.67;9.35;;;;;;;22.94;66.04;100402.59;4953476;28;102391;-50
2022/08/26 07:13:39;;;;;;;21.83;8.80;;;;;;;22.94;65.72;100408.94;4955413;28;102108;-50
2022/08/26 07:16:09;;;;;;;18.88;9.35;;;;;;;22.94;64.88;100413.69;4956412;28;102749;-50
2022/08/26 07:18:38;;;;;;;26.00;9.48;;;;;;;22.94;66.12;100408.94;4947125;28;103929;-50
2022/08/26 07:21:08;;;;;;;28.30;7.72;;;;;;;22.93;64.74;100412.06;4952233;28;102082;-50
2022/08/26 07:23:36;;;;;;;20.45;8.00;;;;;;;22.95;65.82;100421.66;4971245;28;102266;-50
2022/08/26 07:26:04;;;;;;;24.42;9.07;;;;;;;22.96;66.37;100408.56;4974139;28;102366;-50
2022/08/26 07:28:30;;;;;;;17.00;8.27;;;;;;;22.95;65.81;100412.53;4973710;28;103888;-50
2022/08/26 07:30:57;;;;;;;22.92;8.98;;;;;;;22.95;66.25;100404.19;4974516;28;102179;-50
2022/08/26 07:33:23;;;;;;;26.88;9.00;;;;;;;22.95;66.15;100405.00;4973698;28;102167;-50
2022/08/26 07:35:52;;;;;;;19.10;8.73;;;;;;;22.97;66.24;100407.41;4975320;28;102119;-50
2022/08/26 07:38:18;;;;;;;21.50;8.88;;;;;;;22.97;66.39;100407.41;4966002;28;103934;-50
2022/08/26 07:40:44;;;;;;;24.23;9.00;;;;;;;22.97;66.14;100407.41;4953320;28;102074;-50
2022/08/26 07:43:11;;;;;;;23.63;8.88;;;;;;;22.97;66.26;100402.69;4949034;28;102370;-50
2022/08/26 07:45:37;;;;;;;18.67;9.45;;;;;;;22.98;65.24;100409.03;4954583;28;102176;-50
2022/08/26 07:48:04;;;;;;;20.08;8.65;;;;;;;23.00;65.85;100406.66;4942482;28;105611;-50
2022/08/26 07:50:31;;;;;;;20.70;8.68;;;;;;;23.02;64.40;100405.16;4954270;28;102094;-50
2022/08/26 07:53:00;;;;;;;20.58;7.90;;;;;;;23.06;62.08;100396.09;4953958;28;102463;-50
2022/08/26 07:55:27;;;;;;;28.15;8.77;;;;;;;23.08;63.39;100402.91;4955539;28;102208;-50
2022/08/26 07:57:54;;;;;;;21.77;9.20;;;;;;;23.09;62.03;100401.72;4954291;28;103988;-50
2022/08/26 08:00:22;;;;;;;27.25;9.40;;;;;;;23.10;61.16;100406.09;4955221;28;102175;-50
2022/08/26 08:02:49;;;;;;;27.10;9.97;;;;;;;23.11;61.50;100406.91;4969882;28;102415;-50
2022/08/26 08:05:19;;;;;;;34.92;10.00;;;;;;;23.12;61.67;100403.78;4975407;28;102391;-50
2022/08/26 08:07:47;;;;;;;20.08;8.23;;;;;;;23.14;60.87;100406.97;4965008;28;103953;-50
2022/08/26 08:10:19;;;;;;;29.48;10.05;;;;;;;23.14;61.68;100406.97;4935318;28;102457;-50
2022/08/26 08:12:49;;;;;;;23.13;8.38;;;;;;;23.14;61.36;100400.63;4934753;28;102335;-50
2022/08/26 08:15:18;;;;;;;28.93;9.53;;;;;;;23.15;62.49;100405.84;4954197;28;102351;-50
2022/08/26 08:17:45;;;;;;;28.88;8.68;;;;;;;23.15;62.36;100397.50;4953457;28;103663;-50
2022/08/26 08:20:13;;;;;;;23.77;8.52;;;;;;;23.14;62.80;100393.09;4954708;28;102189;-50
2022/08/26 08:22:39;;;;;;;22.95;8.52;;;;;;;23.14;62.79;100395.88;4953292;28;101999;-50
2022/08/26 08:25:06;;;;;;;33.78;8.75;;;;;;;23.14;62.12;100395.06;4951270;28;102508;-50
2022/08/26 08:27:35;;;;;;;27.70;8.95;;;;;;;23.14;62.25;100401.44;4934420;28;103897;-50
2022/08/26 08:30:03;;;;;;;24.60;9.20;;;;;;;23.15;62.98;100397.50;4950272;28;102362;-50
2022/08/26 08:32:29;;;;;;;28.92;10.05;;;;;;;23.13;63.19;100399.84;4954495;28;102242;-50
2022/08/26 08:34:57;;;;;;;29.73;9.35;;;;;;;23.14;62.86;100400.63;4955789;28;102228;-50
2022/08/26 08:37:24;;;;;;;26.17;8.32;;;;;;;23.12;65.06;100398.22;4955099;27;103773;-50
2022/08/26 08:39:50;;;;;;;36.85;9.63;;;;;;;23.10;65.93;100399.75;5057551;27;102526;-50
2022/08/26 08:42:34;;;;;;;33.28;9.30;;;;;;;23.12;62.33;100397.44;5019593;27;102057;-50
2022/08/26 08:45:06;;;;;;;27.73;8.63;;;;;;;23.11;65.12;100393.03;4972456;28;102435;-50
2022/08/26 08:47:37;;;;;;;23.88;8.50;;;;;;;23.10;65.41;100383.91;4991047;27;104080;-50
2022/08/26 08:50:16;;;;;;;23.88;8.75;;;;;;;23.10;66.20;100383.91;5057474;27;102783;-50
2022/08/26 08:52:47;;;;;;;26.88;9.10;;;;;;;23.09;66.54;100387.84;4991902;27;102198;-50
2022/08/26 08:55:15;;;;;;;28.90;9.40;;;;;;;23.11;65.02;100385.50;4974264;28;102057;-50
2022/08/26 08:57:54;;;;;;;25.30;9.68;;;;;;;23.11;65.76;100385.50;4965873;28;104134;-50
2022/08/26 09:00:23;;;;;;;33.15;9.98;;;;;;;23.14;63.83;100379.22;4940209;28;102848;-50
2022/08/26 09:02:55;;;;;;;31.02;9.80;;;;;;;23.15;64.87;100385.56;4965590;28;102121;-50
2022/08/26 09:05:24;;;;;;;27.02;9.63;;;;;;;23.15;65.26;100386.41;4974720;28;102674;-50
2022/08/26 09:07:56;;;;;;;23.27;9.35;;;;;;;23.17;63.72;100384.06;4971163;28;108010;-49
2022/08/26 09:10:32;;;;;;;24.30;9.15;;;;;;;23.20;63.26;100390.84;4953741;28;102259;-50
2022/08/26 09:13:01;;;;;;;27.35;8.57;;;;;;;23.20;64.69;100374.19;4972044;28;102322;-50
2022/08/26 09:15:38;;;;;;;31.88;10.50;;;;;;;23.19;64.38;100381.72;4970524;27;102263;-50
2022/08/26 09:18:16;;;;;;;27.20;9.02;;;;;;;23.22;63.33;100380.19;4934171;28;103922;-50
2022/08/26 09:20:48;;;;;;;24.33;9.60;;;;;;;23.24;63.76;100372.28;4955570;27;102351;-50
2022/08/26 09:23:15;;;;;;;27.75;9.35;;;;;;;23.24;63.44;100373.09;4953436;28;102199;-50
2022/08/26 09:25:47;;;;;;;28.75;9.38;;;;;;;23.24;63.40;100375.06;4954155;28;102929;-50
2022/08/26 09:28:17;;;;;;;25.23;8.77;;;;;;;23.24;63.71;100378.66;4953649;28;103969;-50
2022/08/26 09:30:46;;;;;;;25.45;8.90;;;;;;;23.27;63.99;100377.13;4953857;28;102358;-50
2022/08/26 09:33:17;;;;;;;24.15;9.75;;;;;;;23.27;63.79;100377.13;4952200;28;102283;-50
2022/08/26 09:35:47;;;;;;;21.77;8.73;;;;;;;23.28;63.88;100367.63;4954336;28;102752;-50
2022/08/26 09:38:22;;;;;;;23.35;10.25;;;;;;;23.30;63.33;100365.28;4952698;28;104828;-50
2022/08/26 09:40:56;;;;;;;34.17;9.32;;;;;;;23.31;63.66;100374.41;4953686;28;102650;-50
2022/08/26 09:43:22;;;;;;;24.15;8.88;;;;;;;23.31;63.45;100375.22;4953082;28;102353;-50
2022/08/26 09:45:53;;;;;;;24.48;8.40;;;;;;;23.33;63.29;100372.06;4954519;28;102192;-50
2022/08/26 09:48:29;;;;;;;20.00;9.48;;;;;;;23.33;63.94;100378.41;4953584;28;104151;-50
2022/08/26 09:50:58;;;;;;;24.58;8.65;;;;;;;23.32;64.04;100373.25;4943923;28;102107;-50
2022/08/26 09:53:27;;;;;;;25.63;10.25;;;;;;;23.32;63.67;100378.78;4934328;28;102271;-50
2022/08/26 09:56:10;;;;;;;;;;;;;;;23.34;63.43;100373.69;4944956;28;102374;-50
2022/08/26 09:58:38;;;;;;;22.17;8.90;;;;;;;23.33;63.94;100370.09;4973000;28;107885;-49
2022/08/26 10:01:07;;;;;;;;;;;;;;;23.32;64.11;100367.69;4973931;28;102206;-51
2022/08/26 10:03:36;;;;;;;27.58;8.95;;;;;;;23.32;64.26;100367.69;4959535;28;101987;-50
2022/08/26 10:06:05;;;;;;;19.17;8.98;;;;;;;23.32;63.59;100367.69;4954357;28;102322;-50
2022/08/26 10:08:34;;;;;;;23.88;9.23;;;;;;;23.34;63.80;100368.13;4937233;28;103933;-50
2022/08/26 10:11:04;;;;;;;22.42;9.25;;;;;;;23.30;64.51;100365.28;4934587;28;101972;-50
2022/08/26 10:13:33;;;;;;;25.20;8.95;;;;;;;23.30;64.33;100364.47;4956949;28;101918;-50
2022/08/26 10:16:07;;;;;;;;;;;;;;;23.27;64.53;100361.25;4958526;28;102210;-50
2022/08/26 10:18:39;;;;;;;25.60;8.70;;;;;;;23.30;64.57;100364.47;4961592;27;103956;-50
2022/08/26 10:21:09;;;;;;;19.88;8.73;;;;;;;23.31;64.18;100358.56;4973101;28;102207;-50
2022/08/26 10:23:40;;;;;;;30.02;9.50;;;;;;;23.34;64.41;100357.03;4971934;28;101981;-50
2022/08/26 10:26:15;;;;;;;24.40;9.10;;;;;;;23.33;64.62;100358.19;4935263;28;102218;-50
2022/08/26 10:28:47;;;;;;;32.20;9.57;;;;;;;23.33;64.71;100358.97;4933544;28;103815;-50
2022/08/26 10:31:26;;;;;;;20.58;9.02;;;;;;;23.32;64.92;100356.59;4938561;28;102388;-50
2022/08/26 10:33:55;;;;;;;25.90;9.35;;;;;;;23.32;64.67;100351.81;4943291;27;102348;-49
2022/08/26 10:39:13;;;;;;;23.02;8.45;;;;;;;23.25;67.04;100346.94;4932855;28;108014;-49
2022/08/26 10:41:46;;;;;;;21.98;8.32;;;;;;;23.26;66.82;100348.56;4934095;28;102245;-50
2022/08/26 10:44:16;;;;;;;19.25;9.13;;;;;;;23.27;66.30;100333.50;4937743;28;101922;-51
2022/08/26 10:46:46;;;;;;;20.42;9.63;;;;;;;23.29;65.36;100337.88;4953253;28;102371;-50
2022/08/26 10:49:16;;;;;;;23.92;9.02;;;;;;;23.29;66.46;100337.88;4952857;28;104010;-50
2022/08/26 10:51:56;;;;;;;23.33;9.23;;;;;;;23.26;65.27;100337.47;4953534;28;102390;-50
2022/08/26 10:54:28;;;;;;;21.77;9.13;;;;;;;23.27;66.27;100327.16;4953222;28;102427;-50
2022/08/26 10:56:59;;;;;;;25.95;8.55;;;;;;;23.25;66.12;100324.72;4954066;28;102018;-50
2022/08/26 10:59:38;;;;;;;12.38;8.20;;;;;;;23.24;66.86;100314.78;4937386;28;103953;-50
2022/08/26 11:02:10;;;;;;;16.30;9.25;;;;;;;23.24;66.92;100323.13;4953098;28;102286;-50
2022/08/26 11:04:45;;;;;;;24.83;9.65;;;;;;;23.22;67.07;100325.47;4972732;28;102386;-50
2022/08/26 11:07:40;;;;;;;24.00;9.15;;;;;;;23.24;66.84;100323.13;4973273;28;102263;-50
2022/08/26 11:10:26;;;;;;;16.17;9.45;;;;;;;23.23;67.27;100327.06;4972178;28;103929;-50
2022/08/26 11:12:58;;;;;;;20.65;10.32;;;;;;;23.26;66.02;100320.78;4972220;28;102444;-50
2022/08/26 11:16:04;;;;;;;23.13;9.07;;;;;;;23.26;65.42;100326.34;4954133;28;102225;-50
2022/08/26 11:18:45;;;;;;;18.05;9.23;;;;;;;23.30;65.68;100322.81;4937711;27;102032;-50
2022/08/26 11:21:47;;;;;;;23.40;8.63;;;;;;;23.31;64.60;100327.22;4951350;28;104062;-51
2022/08/26 11:24:39;;;;;;;19.35;9.20;;;;;;;23.30;64.08;100325.59;4948884;28;102497;-50
2022/08/26 11:27:08;;;;;;;27.65;8.75;;;;;;;23.33;64.06;100330.41;5000064;27;102490;-50
2022/08/26 11:29:58;;;;;;;28.45;9.52;;;;;;;23.33;63.83;100327.63;5056586;27;102457;-50
2022/08/26 11:32:43;;;;;;;25.98;10.15;;;;;;;23.36;64.11;100335.25;5008125;27;107846;-50
2022/08/26 11:35:28;;;;;;;34.67;9.60;;;;;;;23.33;64.68;100341.53;4933449;27;101894;-50